Time;durP1;ratioP1;P1;durP2;ratioP2;P2;SDS_P1;SDS_P2;PMS_P1;PMS_P2;Temp;Humidity;BMP_temperature;BMP_pressure;BME280_temperature;BME280_humidity;BME280_pressure;Samples;Min_cycle;Max_cycle;Signal;HPM_P1;HPM_P2
2023/12/17 00:00:03;;;;;;;66.50;38.92;;;;;;;7.99;100.00;103711.00;5077020;28;20078;-69
2023/12/17 00:02:29;;;;;;;72.20;40.35;;;;;;;8.02;100.00;103711.16;5084242;28;20505;-67
2023/12/17 00:04:54;;;;;;;64.93;38.42;;;;;;;8.01;100.00;103709.34;5081727;28;20032;-68
2023/12/17 00:07:19;;;;;;;66.30;37.35;;;;;;;8.01;100.00;103701.44;5082455;28;20047;-67
2023/12/17 00:09:45;;;;;;;66.18;38.50;;;;;;;8.00;100.00;103698.72;5083233;28;20024;-71
2023/12/17 00:12:10;;;;;;;60.70;36.30;;;;;;;8.03;100.00;103693.63;5081478;28;20033;-68
2023/12/17 00:14:36;;;;;;;63.88;37.10;;;;;;;8.02;100.00;103702.34;5084240;28;20467;-66
2023/12/17 00:17:01;;;;;;;69.47;37.10;;;;;;;8.02;100.00;103705.91;5076582;28;20032;-68
2023/12/17 00:19:27;;;;;;;66.78;37.15;;;;;;;8.01;100.00;103697.91;5083516;28;20024;-69
2023/12/17 00:21:53;;;;;;;63.25;36.33;;;;;;;8.03;100.00;103694.53;5081720;28;20056;-66
2023/12/17 00:24:18;;;;;;;61.20;36.63;;;;;;;8.05;100.00;103691.97;5081078;28;20498;-68
2023/12/17 00:26:43;;;;;;;63.53;36.25;;;;;;;8.03;100.00;103689.25;5082884;28;20032;-67
2023/12/17 00:29:09;;;;;;;63.47;37.15;;;;;;;8.03;100.00;103681.34;5081086;28;20025;-69
2023/12/17 00:31:34;;;;;;;63.97;35.42;;;;;;;8.03;100.00;103681.34;5083950;28;20487;-67
2023/12/17 00:34:00;;;;;;;61.38;34.65;;;;;;;8.05;100.00;103684.06;5080692;28;20430;-67
2023/12/17 00:36:26;;;;;;;61.45;36.22;;;;;;;8.05;100.00;103681.44;5082116;28;20036;-69
2023/12/17 00:38:51;;;;;;;63.53;35.85;;;;;;;8.02;100.00;103671.66;5082112;28;20081;-66
2023/12/17 00:41:16;;;;;;;59.55;35.17;;;;;;;8.08;100.00;103667.53;5081838;28;20040;-68
2023/12/17 00:43:43;;;;;;;60.10;35.13;;;;;;;8.03;100.00;103676.09;5083408;28;20024;-67
2023/12/17 00:46:08;;;;;;;61.63;35.50;;;;;;;8.07;100.00;103679.81;5079275;28;20388;-69
2023/12/17 00:48:34;;;;;;;61.35;34.60;;;;;;;8.05;100.00;103675.28;5083837;28;20035;-70
2023/12/17 00:50:59;;;;;;;62.67;35.92;;;;;;;8.03;100.00;103676.09;5080749;28;20046;-70
2023/12/17 00:53:24;;;;;;;63.00;33.83;;;;;;;8.03;100.00;103677.81;5082821;28;20428;-71
2023/12/17 00:55:50;;;;;;;62.40;35.10;;;;;;;8.03;100.00;103678.72;5082047;28;20036;-69
2023/12/17 00:58:15;;;;;;;61.92;35.33;;;;;;;8.03;100.00;103681.34;5081950;28;20095;-72
2023/12/17 01:00:40;;;;;;;62.80;35.80;;;;;;;8.02;100.00;103674.28;5083449;28;20042;-70
2023/12/17 01:03:06;;;;;;;61.88;34.85;;;;;;;8.02;100.00;103669.03;5080230;28;20150;-70
2023/12/17 01:05:33;;;;;;;61.30;34.72;;;;;;;8.00;100.00;103662.72;5083623;28;20103;-71
2023/12/17 01:07:58;;;;;;;63.40;34.30;;;;;;;8.03;100.00;103656.75;5079387;28;20079;-70
2023/12/17 01:10:24;;;;;;;60.63;33.97;;;;;;;8.02;100.00;103649.66;5082765;28;20035;-70
2023/12/17 01:12:49;;;;;;;61.20;33.85;;;;;;;8.02;100.00;103639.09;5081902;28;20051;-70
2023/12/17 01:15:14;;;;;;;60.28;33.33;;;;;;;8.05;100.00;103641.03;5081110;28;20111;-70
2023/12/17 01:17:40;;;;;;;60.05;34.72;;;;;;;8.04;100.00;103650.66;5083226;28;20119;-71
2023/12/17 01:20:08;;;;;;;62.70;34.50;;;;;;;8.02;100.00;103647.94;5080721;28;20037;-70
2023/12/17 01:22:33;;;;;;;60.47;33.85;;;;;;;8.02;100.00;103640.03;5079752;28;20024;-71
2023/12/17 01:24:58;;;;;;;61.90;34.50;;;;;;;8.02;100.00;103641.75;5087284;28;20154;-70
2023/12/17 01:27:24;;;;;;;66.50;35.47;;;;;;;8.02;100.00;103647.94;5084581;28;20091;-70
2023/12/17 01:29:49;;;;;;;60.13;32.42;;;;;;;8.00;100.00;103651.28;5085580;28;20129;-68
2023/12/17 01:32:14;;;;;;;60.35;34.03;;;;;;;8.01;100.00;103658.38;5086102;28;20036;-67
2023/12/17 01:34:40;;;;;;;62.05;33.58;;;;;;;8.02;100.00;103666.38;5084000;28;20036;-66
2023/12/17 01:37:05;;;;;;;60.40;33.88;;;;;;;8.01;100.00;103667.19;5086896;28;20070;-70
2023/12/17 01:39:30;;;;;;;62.22;33.00;;;;;;;7.99;100.00;103667.91;5083677;28;20032;-69
2023/12/17 01:41:56;;;;;;;62.08;33.05;;;;;;;8.00;100.00;103672.38;5085995;28;20361;-68
2023/12/17 01:44:22;;;;;;;62.05;33.92;;;;;;;8.01;100.00;103667.19;5084870;28;20034;-71
2023/12/17 01:46:47;;;;;;;64.05;33.50;;;;;;;8.01;100.00;103674.19;5084944;28;20024;-68
2023/12/17 01:49:13;;;;;;;59.38;32.10;;;;;;;7.99;100.00;103671.47;5085935;28;20036;-67
2023/12/17 01:51:39;;;;;;;60.67;32.92;;;;;;;7.99;100.00;103665.28;5083752;28;20032;-67
2023/12/17 01:54:05;;;;;;;59.20;32.20;;;;;;;7.99;100.00;103662.63;5086673;28;20093;-67
2023/12/17 01:56:32;;;;;;;58.95;32.15;;;;;;;7.98;100.00;103672.28;5083257;28;20094;-69
2023/12/17 01:58:58;;;;;;;58.05;32.25;;;;;;;7.97;100.00;103673.09;5086061;28;20032;-67
2023/12/17 02:01:23;;;;;;;57.22;31.40;;;;;;;7.99;100.00;103673.19;5084259;28;20021;-67
2023/12/17 02:03:49;;;;;;;58.95;31.50;;;;;;;7.99;100.00;103679.38;5083267;28;20490;-68
2023/12/17 02:06:14;;;;;;;56.95;31.52;;;;;;;8.00;100.00;103678.53;5085328;28;20051;-70
2023/12/17 02:08:41;;;;;;;57.05;30.92;;;;;;;8.00;100.00;103683.81;5083372;28;20060;-67
2023/12/17 02:11:06;;;;;;;56.53;30.50;;;;;;;8.00;100.00;103683.81;5086413;28;20028;-69
2023/12/17 02:13:32;;;;;;;56.47;30.58;;;;;;;7.98;100.00;103682.81;5083043;28;20123;-70
2023/12/17 02:15:57;;;;;;;58.30;30.70;;;;;;;7.99;100.00;103688.97;5085437;28;20036;-71
2023/12/17 02:18:22;;;;;;;53.67;30.00;;;;;;;7.99;100.00;103684.66;5084049;28;20485;-71
2023/12/17 02:20:47;;;;;;;54.10;29.90;;;;;;;7.98;100.00;103672.28;5084380;28;20487;-72
2023/12/17 02:23:13;;;;;;;54.13;29.67;;;;;;;7.99;100.00;103674.09;5083913;28;20461;-70
2023/12/17 02:25:38;;;;;;;54.00;28.95;;;;;;;7.99;100.00;103673.19;5082938;28;20054;-70
2023/12/17 02:28:07;;;;;;;53.25;28.98;;;;;;;7.99;100.00;103674.09;5086171;28;20493;-69
2023/12/17 02:30:32;;;;;;;53.90;28.33;;;;;;;7.97;100.00;103659.91;5078569;28;20044;-71
2023/12/17 02:32:58;;;;;;;51.72;29.02;;;;;;;7.98;100.00;103664.38;5084264;28;20024;-71
2023/12/17 02:35:23;;;;;;;53.38;28.20;;;;;;;7.97;100.00;103665.19;5083806;28;20020;-67
2023/12/17 02:37:49;;;;;;;52.85;28.08;;;;;;;7.96;100.00;103667.72;5084013;28;20054;-70
2023/12/17 02:40:14;;;;;;;53.75;28.25;;;;;;;7.95;100.00;103677.38;5085301;28;20024;-67
2023/12/17 02:42:39;;;;;;;54.42;29.75;;;;;;;7.95;100.00;103666.81;5082530;28;20411;-70
2023/12/17 02:45:06;;;;;;;55.28;29.38;;;;;;;7.97;100.00;103666.91;5085711;28;20032;-71
2023/12/17 02:47:32;;;;;;;57.05;29.98;;;;;;;7.97;100.00;103665.19;5082310;28;20039;-70
2023/12/17 02:49:57;;;;;;;58.60;31.88;;;;;;;7.99;100.00;103667.91;5084788;28;20064;-69
2023/12/17 02:52:22;;;;;;;60.42;32.22;;;;;;;7.98;100.00;103666.06;5083453;28;20039;-68
2023/12/17 02:54:48;;;;;;;63.17;31.65;;;;;;;7.96;100.00;103663.34;5083614;28;20036;-68
2023/12/17 02:57:14;;;;;;;59.05;30.92;;;;;;;7.96;100.00;103658.09;5084630;28;20064;-65
2023/12/17 02:59:40;;;;;;;62.58;32.17;;;;;;;7.95;100.00;103664.19;5082368;28;20028;-67
2023/12/17 03:02:05;;;;;;;58.63;29.80;;;;;;;7.96;100.00;103659.81;5085636;28;20032;-72
2023/12/17 03:04:30;;;;;;;58.63;29.95;;;;;;;7.96;100.00;103666.00;5080654;28;20094;-73
2023/12/17 03:06:56;;;;;;;56.83;29.20;;;;;;;7.95;100.00;103655.38;5083909;28;20053;-72
2023/12/17 03:09:21;;;;;;;57.10;28.45;;;;;;;7.96;100.00;103657.19;5082236;28;20075;-73
2023/12/17 03:11:47;;;;;;;60.47;30.13;;;;;;;7.94;100.00;103650.94;5081758;28;20043;-73
2023/12/17 03:14:12;;;;;;;57.83;29.02;;;;;;;7.92;100.00;103650.84;5083236;28;20481;-72
2023/12/17 03:16:38;;;;;;;59.25;29.90;;;;;;;7.92;100.00;103656.13;5081843;28;20075;-73
2023/12/17 03:19:03;;;;;;;53.08;27.02;;;;;;;7.94;100.00;103649.19;5077443;28;20027;-72
2023/12/17 03:21:29;;;;;;;55.90;27.25;;;;;;;7.94;100.00;103658.84;5084600;28;20506;-72
2023/12/17 03:23:54;;;;;;;52.25;25.90;;;;;;;7.92;100.00;103653.47;5082936;28;20036;-72
2023/12/17 03:26:20;;;;;;;51.25;25.85;;;;;;;7.93;100.00;103651.75;5082905;28;20116;-72
2023/12/17 03:28:45;;;;;;;48.90;24.83;;;;;;;7.92;100.00;103645.56;5084151;28;20016;-72
2023/12/17 03:31:15;;;;;;;49.92;25.02;;;;;;;7.93;100.00;103643.84;5080528;28;20035;-72
2023/12/17 03:33:44;;;;;;;47.28;23.67;;;;;;;7.94;100.00;103638.66;5084683;28;20054;-72
2023/12/17 03:36:14;;;;;;;45.17;23.48;;;;;;;7.93;100.00;103635.94;5081650;28;20055;-72
2023/12/17 03:38:44;;;;;;;48.20;23.73;;;;;;;7.92;100.00;103645.56;5084643;28;20379;-72
2023/12/17 03:41:26;;;;;;;43.47;21.92;;;;;;;7.91;100.00;103643.75;5081323;28;20387;-72
2023/12/17 03:43:53;;;;;;;46.17;22.90;;;;;;;7.90;100.00;103643.66;5082574;28;20093;-72
2023/12/17 03:46:20;;;;;;;41.53;23.02;;;;;;;7.91;100.00;103641.13;5081177;28;20028;-72
2023/12/17 03:48:45;;;;;;;44.13;22.27;;;;;;;7.91;100.00;103632.31;5083727;28;20024;-69
2023/12/17 03:51:11;;;;;;;42.95;21.92;;;;;;;7.91;100.00;103634.94;5081288;28;20386;-70
2023/12/17 03:53:36;;;;;;;41.70;21.00;;;;;;;7.91;100.00;103627.06;5084445;28;20557;-69
2023/12/17 03:56:01;;;;;;;40.00;21.83;;;;;;;7.90;100.00;103630.50;5081375;28;20032;-69
2023/12/17 03:58:27;;;;;;;40.40;20.17;;;;;;;7.92;100.00;103620.94;5083474;28;20039;-68
2023/12/17 04:00:53;;;;;;;40.53;20.52;;;;;;;7.92;100.00;103631.47;5082724;28;20028;-70
2023/12/17 04:03:19;;;;;;;40.22;20.13;;;;;;;7.89;100.00;103619.03;5082130;28;20051;-71
2023/12/17 04:05:44;;;;;;;38.85;19.75;;;;;;;7.88;100.00;103617.22;5081991;28;20364;-67
2023/12/17 04:08:09;;;;;;;36.70;19.38;;;;;;;7.92;100.00;103613.97;5080987;28;20154;-70
2023/12/17 04:10:35;;;;;;;36.17;19.10;;;;;;;7.89;100.00;103607.59;5084295;28;20029;-70
2023/12/17 04:13:00;;;;;;;36.78;18.95;;;;;;;7.86;100.00;103605.69;5081142;28;20039;-70
2023/12/17 04:15:26;;;;;;;37.80;19.52;;;;;;;7.84;100.00;103605.59;5083285;28;20024;-70
2023/12/17 04:17:51;;;;;;;38.47;19.52;;;;;;;7.87;100.00;103610.13;5082632;28;20081;-70
2023/12/17 04:20:16;;;;;;;36.88;19.92;;;;;;;7.85;100.00;103603.88;5081915;28;20024;-69
2023/12/17 04:22:42;;;;;;;36.95;19.02;;;;;;;7.84;100.00;103602.06;5083813;28;20043;-66
2023/12/17 04:25:10;;;;;;;39.10;20.00;;;;;;;7.79;100.00;103598.22;5080631;28;20383;-70
2023/12/17 04:27:35;;;;;;;38.55;19.35;;;;;;;7.78;100.00;103599.06;5076691;28;20037;-67
2023/12/17 04:30:01;;;;;;;37.53;19.08;;;;;;;7.81;100.00;103599.25;5082538;28;20391;-67
2023/12/17 04:32:26;;;;;;;39.08;19.63;;;;;;;7.79;100.00;103590.31;5081527;28;20021;-67
2023/12/17 04:34:55;;;;;;;37.13;19.00;;;;;;;7.77;100.00;103589.34;5082264;28;20086;-67
2023/12/17 04:37:22;;;;;;;39.17;19.50;;;;;;;7.78;100.00;103591.16;5082514;28;20044;-67
2023/12/17 04:39:47;;;;;;;39.67;19.92;;;;;;;7.76;100.00;103596.34;5081676;28;20025;-67
2023/12/17 04:42:12;;;;;;;43.85;20.23;;;;;;;7.74;100.00;103600.59;5083487;28;20060;-69
2023/12/17 04:44:38;;;;;;;41.67;20.90;;;;;;;7.73;100.00;103593.50;5079408;28;20451;-67
2023/12/17 04:47:04;;;;;;;40.60;21.08;;;;;;;7.72;100.00;103598.66;5083689;28;20040;-68
2023/12/17 04:49:29;;;;;;;40.33;20.00;;;;;;;7.71;100.00;103596.88;5081264;28;20078;-67
2023/12/17 04:51:55;;;;;;;39.58;19.85;;;;;;;7.75;100.00;103586.63;5081279;28;20040;-69
2023/12/17 04:54:20;;;;;;;40.03;20.13;;;;;;;7.73;100.00;103595.22;5082526;28;20036;-66
2023/12/17 04:56:45;;;;;;;40.30;19.13;;;;;;;7.67;100.00;103601.03;5083326;28;20071;-68
2023/12/17 04:59:11;;;;;;;38.78;19.88;;;;;;;7.68;100.00;103601.13;5087489;28;20028;-68
2023/12/17 05:01:36;;;;;;;38.67;19.75;;;;;;;7.68;100.00;103605.50;5084272;28;20116;-67
2023/12/17 05:04:01;;;;;;;38.80;19.50;;;;;;;7.64;100.00;103601.75;5087336;28;20059;-71
2023/12/17 05:06:27;;;;;;;38.70;20.05;;;;;;;7.65;100.00;103590.41;5084753;28;20044;-68
2023/12/17 05:08:52;;;;;;;37.42;19.05;;;;;;;7.65;100.00;103593.03;5085765;28;20025;-67
2023/12/17 05:11:17;;;;;;;38.85;19.38;;;;;;;7.61;100.00;103591.03;5086499;28;20124;-68
2023/12/17 05:13:43;;;;;;;40.03;20.08;;;;;;;7.59;100.00;103587.41;5084472;28;20443;-67
2023/12/17 05:16:08;;;;;;;38.97;19.73;;;;;;;7.61;100.00;103588.41;5086060;28;20083;-69
2023/12/17 05:18:33;;;;;;;37.80;18.77;;;;;;;7.61;100.00;103584.88;5084153;28;20024;-67
2023/12/17 05:20:59;;;;;;;35.85;18.05;;;;;;;7.62;100.00;103587.59;5086562;28;20056;-67
2023/12/17 05:23:24;;;;;;;39.22;19.63;;;;;;;7.55;100.00;103590.69;5085292;28;20078;-67
2023/12/17 05:25:49;;;;;;;37.05;19.00;;;;;;;7.56;100.00;103592.50;5085166;28;20028;-67
2023/12/17 05:28:15;;;;;;;37.92;19.13;;;;;;;7.53;100.00;103594.03;5086239;28;20067;-67
2023/12/17 05:30:40;;;;;;;39.20;20.08;;;;;;;7.52;100.00;103584.34;5083912;28;20033;-66
2023/12/17 05:33:07;;;;;;;39.90;20.02;;;;;;;7.48;100.00;103589.41;5087129;28;20409;-67
2023/12/17 05:35:32;;;;;;;38.72;19.45;;;;;;;7.50;100.00;103594.78;5082579;28;20032;-66
2023/12/17 05:37:57;;;;;;;40.63;20.40;;;;;;;7.48;100.00;103586.78;5086532;28;20078;-66
2023/12/17 05:40:23;;;;;;;40.60;20.13;;;;;;;7.49;100.00;103590.31;5085014;28;20024;-66
2023/12/17 05:42:48;;;;;;;39.55;20.23;;;;;;;7.46;100.00;103592.75;5084646;28;20064;-66
2023/12/17 05:45:14;;;;;;;40.85;20.38;;;;;;;7.49;100.00;103590.31;5086451;28;20031;-68
2023/12/17 05:47:39;;;;;;;41.40;20.77;;;;;;;7.48;100.00;103597.31;5083346;28;20025;-66
2023/12/17 05:50:06;;;;;;;41.00;21.08;;;;;;;7.48;100.00;103586.78;5079371;28;20033;-69
2023/12/17 05:52:31;;;;;;;40.33;21.42;;;;;;;7.51;100.00;103580.78;5086379;28;20036;-66
2023/12/17 05:54:57;;;;;;;39.30;20.35;;;;;;;7.53;100.00;103580.88;5084320;28;20372;-66
2023/12/17 05:57:22;;;;;;;38.08;19.85;;;;;;;7.48;100.00;103578.88;5084891;28;20080;-69
2023/12/17 05:59:48;;;;;;;38.25;19.33;;;;;;;7.43;100.00;103584.69;5085575;28;20069;-69
2023/12/17 06:02:13;;;;;;;35.78;18.45;;;;;;;7.43;100.00;103572.41;5082161;28;20032;-69
2023/12/17 06:04:38;;;;;;;36.97;18.98;;;;;;;7.45;100.00;103577.78;5085285;28;20123;-70
2023/12/17 06:07:04;;;;;;;34.40;17.45;;;;;;;7.37;100.00;103573.75;5082763;28;20044;-70
2023/12/17 06:09:29;;;;;;;32.92;17.15;;;;;;;7.35;100.00;103581.56;5085822;28;20538;-67
2023/12/17 06:11:55;;;;;;;33.70;17.05;;;;;;;7.32;100.00;103582.31;5084463;28;20035;-70
2023/12/17 06:14:20;;;;;;;31.85;16.35;;;;;;;7.28;100.00;103582.00;5084234;28;20421;-71
2023/12/17 06:16:46;;;;;;;32.00;15.00;;;;;;;7.25;100.00;103582.75;5085498;28;20028;-66
2023/12/17 06:19:11;;;;;;;31.35;16.23;;;;;;;7.22;100.00;103582.53;5083329;28;20388;-66
2023/12/17 06:21:38;;;;;;;29.73;14.63;;;;;;;7.21;100.00;103588.63;5086239;28;20129;-68
2023/12/17 06:24:04;;;;;;;28.88;14.35;;;;;;;7.21;100.00;103583.38;5082016;28;20032;-69
2023/12/17 06:26:30;;;;;;;28.33;13.60;;;;;;;7.19;100.00;103587.59;5085927;28;20037;-68
2023/12/17 06:28:56;;;;;;;28.38;13.68;;;;;;;7.18;100.00;103587.50;5082662;28;20024;-69
2023/12/17 06:31:22;;;;;;;30.75;14.52;;;;;;;7.17;100.00;103583.97;5083953;28;20028;-70
2023/12/17 06:33:47;;;;;;;28.80;14.30;;;;;;;7.18;100.00;103585.81;5085140;28;20076;-71
2023/12/17 06:36:13;;;;;;;29.50;13.75;;;;;;;7.17;100.00;103581.34;5082857;28;20387;-69
2023/12/17 06:38:39;;;;;;;27.88;14.07;;;;;;;7.19;100.00;103578.81;5085815;28;20107;-68
2023/12/17 06:41:05;;;;;;;29.52;14.55;;;;;;;7.17;100.00;103586.63;5082813;28;20033;-67
2023/12/17 06:43:30;;;;;;;30.08;14.63;;;;;;;7.18;100.00;103583.19;5085351;28;20126;-69
2023/12/17 06:45:56;;;;;;;29.90;14.85;;;;;;;7.18;100.00;103583.19;5083499;28;20024;-69
2023/12/17 06:48:21;;;;;;;29.50;14.38;;;;;;;7.19;100.00;103592.88;5083979;28;20071;-67
2023/12/17 06:50:46;;;;;;;29.38;14.93;;;;;;;7.18;100.00;103585.81;5083502;28;20024;-66
2023/12/17 06:53:17;;;;;;;29.42;14.75;;;;;;;7.20;100.00;103585.91;5082410;28;20032;-70
2023/12/17 06:55:43;;;;;;;30.42;15.50;;;;;;;7.18;100.00;103577.91;5084167;28;20482;-71
2023/12/17 06:58:08;;;;;;;31.40;15.48;;;;;;;7.20;100.00;103581.53;5082305;28;20043;-67
2023/12/17 07:00:34;;;;;;;31.15;15.73;;;;;;;7.21;100.00;103577.16;5085333;28;20115;-67
2023/12/17 07:03:00;;;;;;;30.63;15.88;;;;;;;7.23;100.00;103570.31;5082643;28;20028;-70
2023/12/17 07:05:26;;;;;;;32.65;17.25;;;;;;;7.22;100.00;103573.72;5084244;28;20383;-70
2023/12/17 07:07:51;;;;;;;33.30;16.92;;;;;;;7.22;100.00;103568.47;5083669;28;20517;-69
2023/12/17 07:10:16;;;;;;;33.30;17.38;;;;;;;7.26;100.00;103567.84;5082804;28;20029;-68
2023/12/17 07:12:42;;;;;;;32.10;17.13;;;;;;;7.24;100.00;103582.66;5085177;28;20028;-69
2023/12/17 07:15:08;;;;;;;32.13;16.95;;;;;;;7.19;100.00;103578.81;5081742;28;20102;-70
2023/12/17 07:17:33;;;;;;;30.45;16.30;;;;;;;7.11;100.00;103573.09;5084549;28;20054;-69
2023/12/17 07:19:59;;;;;;;29.38;15.50;;;;;;;7.10;100.00;103576.53;5082398;28;20106;-71
2023/12/17 07:22:24;;;;;;;28.08;14.57;;;;;;;7.07;100.00;103584.22;5083612;28;20527;-71
2023/12/17 07:24:50;;;;;;;28.15;14.90;;;;;;;7.00;100.00;103572.41;5083680;28;20025;-71
2023/12/17 07:27:15;;;;;;;27.48;13.77;;;;;;;7.03;100.00;103582.22;5081821;28;20040;-70
2023/12/17 07:29:41;;;;;;;27.08;13.85;;;;;;;7.04;100.00;103584.03;5083793;28;20031;-71
2023/12/17 07:32:06;;;;;;;26.95;13.52;;;;;;;7.04;100.00;103578.78;5076009;28;20119;-71
2023/12/17 07:34:32;;;;;;;26.70;13.55;;;;;;;7.02;100.00;103581.31;5084189;28;20035;-71
2023/12/17 07:36:57;;;;;;;28.40;14.65;;;;;;;7.06;100.00;103579.75;5082491;28;20044;-71
2023/12/17 07:39:23;;;;;;;28.90;14.05;;;;;;;7.04;100.00;103592.81;5082636;28;20029;-71
2023/12/17 07:41:48;;;;;;;27.98;14.35;;;;;;;7.03;100.00;103596.25;5082617;28;20080;-70
2023/12/17 07:44:13;;;;;;;30.15;15.02;;;;;;;7.06;100.00;103603.44;5081266;28;20103;-68
2023/12/17 07:46:39;;;;;;;27.73;14.07;;;;;;;7.10;100.00;103603.72;5084527;28;20028;-70
2023/12/17 08:01:01;;;;;;;27.55;13.43;;;;;;;7.10;100.00;103594.94;5079469;27;1283238;-78
2023/12/17 08:03:27;;;;;;;27.13;12.70;;;;;;;7.09;100.00;103603.63;5110886;28;20393;-74
2023/12/17 08:05:52;;;;;;;26.58;12.95;;;;;;;7.03;100.00;103596.25;5092472;28;20474;-74
2023/12/17 08:08:18;;;;;;;27.42;13.60;;;;;;;7.00;100.00;103611.84;5111151;28;20062;-72
2023/12/17 08:10:44;;;;;;;25.85;11.77;;;;;;;7.02;100.00;103601.44;5110578;28;20030;-73
2023/12/17 08:13:10;;;;;;;24.92;11.77;;;;;;;7.00;100.00;103600.44;5110520;28;20462;-78
2023/12/17 08:15:35;;;;;;;24.70;11.52;;;;;;;6.97;100.00;103599.44;5110948;28;20062;-77
2023/12/17 08:18:01;;;;;;;25.42;12.02;;;;;;;6.92;100.00;103605.22;5092405;28;20070;-78
2023/12/17 08:20:26;;;;;;;25.02;11.50;;;;;;;6.87;100.00;103607.53;5110604;28;20046;-80
2023/12/17 08:22:51;;;;;;;24.55;11.88;;;;;;;6.87;100.00;103602.28;5110275;28;20036;-79
2023/12/17 08:25:17;;;;;;;24.85;12.13;;;;;;;6.88;100.00;103596.22;5110139;28;20027;-79
2023/12/17 08:27:42;;;;;;;25.60;12.43;;;;;;;6.81;100.00;103604.53;5110736;28;20356;-73
2023/12/17 08:30:10;;;;;;;25.60;12.68;;;;;;;6.81;100.00;103601.88;5110125;28;20114;-76
2023/12/17 08:32:35;;;;;;;25.33;12.25;;;;;;;6.86;100.00;103599.53;5067221;28;20024;-79
2023/12/17 08:35:01;;;;;;;24.75;11.95;;;;;;;6.79;100.00;103603.53;5109616;28;20481;-79
2023/12/17 08:37:26;;;;;;;24.90;11.68;;;;;;;6.83;100.00;103610.81;5109562;28;20039;-79
2023/12/17 08:39:53;;;;;;;26.40;13.23;;;;;;;6.77;100.00;103615.66;5109387;28;20490;-71
2023/12/17 08:42:19;;;;;;;25.15;12.45;;;;;;;6.76;100.00;103613.84;5109820;28;20032;-77
2023/12/17 08:44:45;;;;;;;26.08;13.52;;;;;;;6.78;100.00;103612.22;5109506;28;20096;-79
2023/12/17 08:47:11;;;;;;;26.30;12.77;;;;;;;6.75;100.00;103618.19;5109316;28;20518;-78
2023/12/17 08:49:36;;;;;;;26.90;12.98;;;;;;;6.78;100.00;103609.59;5110363;28;20048;-76
2023/12/17 08:52:02;;;;;;;26.55;13.00;;;;;;;6.78;100.00;103615.75;5091738;28;20059;-76
2023/12/17 08:54:27;;;;;;;25.85;12.63;;;;;;;6.74;100.00;103605.88;5109817;28;20388;-78
2023/12/17 08:56:52;;;;;;;26.45;12.55;;;;;;;6.71;100.00;103604.75;5109532;28;20496;-68
2023/12/17 08:59:18;;;;;;;25.10;12.25;;;;;;;6.70;100.00;103603.84;5104700;28;20182;-68
2023/12/17 09:01:43;;;;;;;25.63;12.68;;;;;;;6.67;100.00;103615.88;5087743;28;20024;-73
2023/12/17 09:04:08;;;;;;;26.90;13.63;;;;;;;6.66;100.00;103600.94;5084448;28;20028;-79
2023/12/17 09:06:45;;;;;;;24.92;12.43;;;;;;;6.67;100.00;103613.25;5087473;28;20162;-80
2023/12/17 09:09:11;;;;;;;25.40;12.55;;;;;;;6.63;100.00;103607.78;5087603;28;20035;-80
2023/12/17 09:11:37;;;;;;;25.98;12.95;;;;;;;6.69;100.00;103611.63;5084408;28;20056;-80
2023/12/17 09:14:02;;;;;;;27.08;13.90;;;;;;;6.68;100.00;103610.72;5088152;28;20068;-80
2023/12/17 09:16:28;;;;;;;28.40;15.13;;;;;;;6.69;100.00;103607.28;5084537;28;20085;-79
2023/12/17 09:18:53;;;;;;;26.83;12.80;;;;;;;6.69;100.00;103611.63;5070610;28;20035;-73
2023/12/17 09:21:18;;;;;;;26.02;12.50;;;;;;;6.62;100.00;103608.59;5085478;28;20024;-69
2023/12/17 09:23:44;;;;;;;26.75;13.50;;;;;;;6.56;100.00;103618.72;5085850;28;20030;-69
2023/12/17 09:26:09;;;;;;;27.35;13.85;;;;;;;6.53;100.00;103615.88;5083451;28;20017;-69
2023/12/17 09:28:35;;;;;;;28.42;14.75;;;;;;;6.53;100.00;103621.16;5086516;28;20036;-68
2023/12/17 09:31:01;;;;;;;29.60;15.32;;;;;;;6.54;100.00;103616.78;5083753;28;20025;-68
2023/12/17 09:33:27;;;;;;;29.23;14.95;;;;;;;6.57;100.00;103617.00;5085488;28;20040;-68
2023/12/17 09:35:52;;;;;;;28.50;14.65;;;;;;;6.53;100.00;103613.25;5084468;28;20024;-68
2023/12/17 09:38:18;;;;;;;28.67;14.50;;;;;;;6.51;100.00;103614.91;5084964;28;20024;-68
2023/12/17 09:40:46;;;;;;;29.27;15.15;;;;;;;6.43;100.00;103618.72;5067513;28;20020;-69
2023/12/17 09:43:13;;;;;;;30.08;16.02;;;;;;;6.42;100.00;103616.91;5065815;28;20063;-68
2023/12/17 09:45:41;;;;;;;29.98;15.95;;;;;;;6.41;100.00;103628.25;5086416;28;20073;-70
2023/12/17 09:48:06;;;;;;;29.65;16.10;;;;;;;6.39;100.00;103612.38;5082816;28;20070;-69
2023/12/17 09:50:31;;;;;;;30.48;15.38;;;;;;;6.37;100.00;103618.34;5085934;28;20051;-69
2023/12/17 09:52:57;;;;;;;31.00;16.45;;;;;;;6.34;100.00;103619.03;5083700;28;20522;-70
2023/12/17 09:55:22;;;;;;;32.28;16.92;;;;;;;6.31;100.00;103623.19;5084477;28;20033;-69
2023/12/17 09:57:48;;;;;;;33.88;17.90;;;;;;;6.29;100.00;103625.69;5084565;28;20103;-69
2023/12/17 10:00:14;;;;;;;32.50;18.85;;;;;;;6.30;100.00;103621.38;5083637;28;20048;-79
2023/12/17 10:02:40;;;;;;;31.35;15.73;;;;;;;6.35;100.00;103622.56;5086726;28;20056;-75
2023/12/17 10:05:06;;;;;;;31.30;17.83;;;;;;;6.32;100.00;103622.34;5083542;28;20032;-70
2023/12/17 10:07:32;;;;;;;30.27;15.88;;;;;;;6.37;100.00;103616.59;5086965;28;20099;-71
2023/12/17 10:09:57;;;;;;;32.75;17.70;;;;;;;6.32;100.00;103625.00;5083930;28;20159;-76
2023/12/17 10:12:23;;;;;;;31.45;17.52;;;;;;;6.32;100.00;103620.66;5084414;28;20028;-81
2023/12/17 10:14:51;;;;;;;32.92;18.15;;;;;;;6.32;100.00;103630.25;5067279;28;20016;-76
2023/12/17 10:17:17;;;;;;;32.83;18.35;;;;;;;6.28;100.00;103623.88;5083766;28;20468;-77
2023/12/17 10:19:43;;;;;;;31.77;17.65;;;;;;;6.35;100.00;103619.94;5085853;28;20035;-78
2023/12/17 10:22:08;;;;;;;32.95;17.65;;;;;;;6.37;100.00;103623.59;5083104;28;20017;-78
2023/12/17 10:24:36;;;;;;;33.28;18.60;;;;;;;6.38;100.00;103628.03;5085585;28;20063;-80
2023/12/17 10:27:14;;;;;;;34.35;18.95;;;;;;;6.34;100.00;103628.66;5082030;28;20032;-79
2023/12/17 10:29:40;;;;;;;32.88;18.05;;;;;;;6.34;100.00;103621.66;5082131;28;20032;-76
2023/12/17 10:32:08;;;;;;;35.22;19.13;;;;;;;6.36;100.00;103613.88;5085339;28;20024;-77
2023/12/17 10:34:34;;;;;;;36.03;20.77;;;;;;;6.37;100.00;103618.34;5081777;28;20028;-80
2023/12/17 10:37:00;;;;;;;34.47;19.65;;;;;;;6.38;100.00;103609.66;5084927;28;20024;-80
2023/12/17 10:39:27;;;;;;;38.15;21.85;;;;;;;6.36;100.00;103603.38;5050373;28;20035;-77
2023/12/17 10:41:53;;;;;;;36.47;21.15;;;;;;;6.37;100.00;103606.09;5083155;28;20425;-80
2023/12/17 10:44:20;;;;;;;37.63;22.27;;;;;;;6.45;100.00;103596.06;5083634;28;20323;-78
2023/12/17 10:46:46;;;;;;;39.78;22.15;;;;;;;6.46;100.00;103590.03;5084032;28;20028;-75
2023/12/17 10:49:12;;;;;;;38.88;22.80;;;;;;;6.52;100.00;103592.13;5081836;28;20471;-77
2023/12/17 10:51:39;;;;;;;37.83;22.73;;;;;;;6.61;100.00;103593.66;5085238;28;20032;-75
2023/12/17 10:54:11;;;;;;;37.47;22.50;;;;;;;6.79;100.00;103587.75;5081355;28;20082;-70
2023/12/17 10:56:47;;;;;;;39.38;22.50;;;;;;;6.98;100.00;103587.19;5081341;28;20103;-70
2023/12/17 10:59:17;;;;;;;36.75;21.20;;;;;;;7.12;100.00;103577.50;5081576;28;20028;-70
2023/12/17 11:01:45;;;;;;;35.35;20.25;;;;;;;7.44;100.00;103575.94;5084386;28;20107;-70
2023/12/17 11:04:11;;;;;;;34.95;20.25;;;;;;;7.75;100.00;103562.91;5081498;28;20111;-75
2023/12/17 11:06:37;;;;;;;32.95;19.40;;;;;;;7.86;100.00;103560.91;5084672;28;20103;-80
2023/12/17 11:09:04;;;;;;;32.45;17.40;;;;;;;7.96;100.00;103546.56;5081209;28;20464;-78
2023/12/17 11:11:31;;;;;;;29.45;15.40;;;;;;;8.35;100.00;103545.28;5084096;28;20520;-80
2023/12/17 11:13:56;;;;;;;29.90;15.55;;;;;;;8.27;100.00;103538.69;5064064;28;20020;-79